Lake Emma, Minnesota
Current Conditions -  °F | °C
As of 6:53 PM on Tuesday 21 Oct 2014 (Local Time) from KPKD Reporting Station
Clear Clear  
Wind Chill: 51°   Ceiling: Unl
Heat Index: 51°   Visibility: 10mi
Dew Point: 38°   Wind: 13mph
Humidity: 61%   Direction: 140°SE
Pressure: 30.04"   Gusts: NA
Location:  46.9966°N, 95.0029°W
Report Text: KPKD 212353Z AUTO 14011KT 10SM CLR 11/03 A3004 RMK AO2 SLP185 T01060033 10144 20106 53002 TSNO
Loading
Personal Weather Stations






























Interactive Weather Map
Tropical Storm Tracking
New forecast layout! Learn more

10-Day Weather Forecast

Advertisements
Track Severe Weather on mobile